Latest Coastal Weather Observations for Tewantin

IDQ60701

Issued at 4:51 pm EST Tuesday 28 April 2015 (issued every 10 minutes, with the page automatically refreshed every 10 minutes)

About coastal observations | Map of coastal stations | Coastal observations for QLD | Marine services | Other Formats
Station Details ID: 040908 Name: TEWANTIN RSL PARK Lat: -26.39 Lon: 153.04 Height: 6.4 m
Data from the previous 72 hours. | See also: Recent months at Tewantin
Date/Time
EST
Temp

°C
Wind Pressure Rain
since 9am
mm
Weather Cloud Vis
km
Sea
Height
m
Swell
Dir
 
Speed
knots
Gust
knots
hPa Trend Height
m
Period
s
Dir
28/04:30pm 22.9 SE 6 11 1019.9 - 0.0 - - - - - - -
28/04:00pm 22.7 SSE 7 13 1019.7 - 0.0 - - - - - - -
28/03:30pm 23.1 SE 8 16 1019.6 - 0.0 - - - - - - -
28/03:00pm 23.1 SE 10 15 1019.6 - 0.0 - - - - - - -
28/02:30pm 23.2 SE 10 16 1019.6 - 0.0 - - - - - - -
28/02:00pm 23.3 SE 11 19 1019.8 - 0.0 - - - - - - -
28/01:30pm 23.6 SSE 10 18 1019.9 - 0.0 - - - - - - -
28/01:00pm 23.9 SSE 9 19 1020.2 - 0.0 - - - - - - -
28/12:30pm 23.9 SSE 8 13 1020.6 - 0.0 - - - - - - -
28/12:00pm 24.1 S 11 17 1020.9 - 0.0 - - - - - - -
28/11:30am 23.7 SSE 9 17 1021.2 - 0.0 - - - - - - -
28/11:00am 23.7 SSE 8 13 1021.4 - 0.0 - - - - - - -
28/10:30am 24.0 S 8 13 1021.7 - 0.0 - - - - - - -
28/10:00am 23.0 S 9 13 1021.8 - 0.0 - - - - - - -
28/09:30am 22.5 S 8 13 1021.9 - 0.0 - - - - - - -
28/09:00am 21.0 S 8 12 1021.9 - 0.0 - - - - - - -
28/08:30am 19.8 S 7 11 1021.7 - 0.0 - - - - - - -
28/08:00am 19.4 S 7 10 1021.5 - 0.0 - - - - - - -
28/07:30am 18.6 S 7 9 1021.1 - 0.0 - - - - - - -
28/07:00am 17.2 SSW 4 6 1020.6 - 0.0 - - - - - - -
28/06:30am 15.9 S 3 5 1020.3 - 0.0 - - - - - - -
28/06:00am 15.7 S 4 7 1019.7 - 0.0 - - - - - - -
28/05:30am 14.3 S 2 4 1019.6 - 0.0 - - - - - - -
28/05:00am 14.7 S 3 4 1019.4 - 0.0 - - - - - - -
28/04:30am 14.6 SE 1 5 1019.0 - 0.0 - - - - - - -
28/04:00am 14.3 CALM 0 0 1018.8 - 0.0 - - - - - - -
28/03:30am 14.5 CALM 0 0 1018.6 - 0.0 - - - - - - -
28/03:00am 14.6 CALM 0 0 1018.8 - 0.0 - - - - - - -
28/02:30am 15.2 WSW 1 3 1018.8 - 0.0 - - - - - - -
28/02:00am 14.9 NNW 1 4 1018.7 - 0.0 - - - - - - -
28/01:30am 15.3 CALM 0 0 1018.8 - 0.0 - - - - - - -
28/01:00am 15.6 CALM 0 0 1018.6 - 0.0 - - - - - - -
28/12:30am 15.3 CALM 0 0 1019.0 - 0.0 - - - - - - -
28/12:00am 15.3 CALM 0 3 1019.1 - 0.0 - - - - - - -
 
Date/Time
EST
Temp

°C
Wind Pressure Rain
since 9am
mm
Weather Cloud Vis
km
Sea
Height
m
Swell
Dir
 
Speed
knots
Gust
knots
hPa Trend Height
m
Period
s
Dir
27/11:30pm 15.4 W 1 3 1019.3 - 0.0 - - - - - - -
27/11:00pm 15.3 CALM 0 0 1019.3 - 0.0 - - - - - - -
27/10:30pm 15.4 SW 4 5 1019.4 - 0.0 - - - - - - -
27/10:00pm 15.3 CALM 0 0 1019.4 - 0.0 - - - - - - -
27/09:30pm 15.9 CALM 0 0 1019.3 - 0.0 - - - - - - -
27/09:00pm 16.4 CALM 0 0 1019.1 - 0.0 - - - - - - -
27/08:30pm 16.4 CALM 0 0 1019.0 - 0.0 - - - - - - -
27/08:00pm 17.0 CALM 0 0 1019.0 - 0.0 - - - - - - -
27/07:30pm 17.5 CALM 0 0 1018.8 - 0.0 - - - - - - -
27/07:00pm 18.0 CALM 0 3 1018.4 - 0.0 - - - - - - -
27/06:30pm 18.9 SW 2 3 1017.7 - 0.0 - - - - - - -
27/06:00pm 19.5 CALM 0 0 1017.5 - 0.0 - - - - - - -
27/05:30pm 20.6 SE 1 4 1017.2 - 0.0 - - - - - - -
27/05:00pm 21.3 SE 4 5 1017.0 - 0.0 - - - - - - -
27/04:30pm 21.9 SE 5 7 1016.5 - 0.0 - - - - - - -
27/04:00pm 22.2 SE 5 9 1016.2 - 0.0 - - - - - - -
27/03:30pm 22.4 SE 5 8 1015.9 - 0.0 - - - - - - -
27/03:00pm 22.9 SE 6 10 1015.7 - 0.0 - - - - - - -
27/02:30pm 23.1 ESE 7 10 1015.8 - 0.0 - - - - - - -
27/02:00pm 23.1 ESE 6 9 1015.8 - 0.0 - - - - - - -
27/01:30pm 23.2 ESE 6 9 1015.8 - 0.0 - - - - - - -
27/01:00pm 23.5 SSE 4 7 1016.0 - 0.0 - - - - - - -
27/12:30pm 23.2 E 4 7 1016.2 - 0.0 - - - - - - -
27/12:00pm 23.0 E 3 7 1016.7 - 0.0 - - - - - - -
27/11:30am 22.9 SE 5 7 1016.9 - 0.0 - - - - - - -
27/11:00am 22.9 SE 4 7 1017.2 - 0.0 - - - - - - -
27/10:30am 22.2 SSE 4 7 1017.6 - 0.0 - - - - - - -
27/10:00am 22.8 SSW 4 8 1017.8 - 0.0 - - - - - - -
27/09:30am 21.4 SSW 5 9 1017.9 - 0.0 - - - - - - -
27/09:00am 20.8 SSW 5 9 1017.8 - 0.0 - - - - - - -
27/08:30am 19.5 NW 1 4 1017.9 - 0.0 - - - - - - -
27/08:00am 16.9 N 3 3 1017.5 - 0.0 - - - - - - -
27/07:30am 15.6 W 1 4 1017.1 - 0.0 - - - - - - -
27/07:00am 13.5 SSW 1 5 1017.1 - 0.0 - - - - - - -
27/06:30am 11.2 CALM 0 0 1016.8 - 0.0 - - - - - - -
27/06:00am 11.1 NW 2 4 1016.4 - 0.0 - - - - - - -
27/05:30am 11.0 NNW 3 5 1016.2 - 0.0 - - - - - - -
27/05:00am 11.1 NNW 2 3 1015.7 - 0.0 - - - - - - -
27/04:30am 11.8 CALM 0 0 1015.5 - 0.0 - - - - - - -
27/04:00am 12.0 CALM 0 0 1015.4 - 0.0 - - - - - - -
27/03:30am 11.9 CALM 0 3 1015.4 - 0.0 - - - - - - -
27/03:00am 12.2 WSW 2 5 1015.6 - 0.0 - - - - - - -
27/02:30am 12.8 NW 1 3 1015.6 - 0.0 - - - - - - -
27/02:00am 13.4 WNW 4 5 1015.8 - 0.0 - - - - - - -
27/01:30am 13.1 WNW 2 4 1016.0 - 0.0 - - - - - - -
27/01:00am 14.3 W 4 6 1015.7 - 0.0 - - - - - - -
27/12:30am 14.2 SW 1 4 1015.8 - 0.0 - - - - - - -
27/12:00am 14.7 W 2 3 1015.8 - 0.0 - - - - - - -
 
Date/Time
EST
Temp

°C
Wind Pressure Rain
since 9am
mm
Weather Cloud Vis
km
Sea
Height
m
Swell
Dir
 
Speed
knots
Gust
knots
hPa Trend Height
m
Period
s
Dir
26/11:30pm 15.7 W 2 5 1015.7 - 0.0 - - - - - - -
26/11:00pm 15.6 NNE 2 4 1015.8 - 0.0 - - - - - - -
26/10:30pm 16.4 SSW 3 5 1015.6 - 0.0 - - - - - - -
26/10:00pm 17.3 WSW 5 9 1015.2 - 0.0 - - - - - - -
26/09:30pm 16.7 WSW 2 4 1015.8 - 0.0 - - - - - - -
26/09:00pm 17.1 SSW 3 6 1016.1 - 0.0 - - - - - - -
26/08:30pm 17.1 S 4 9 1016.1 - 0.0 - - - - - - -
26/08:00pm 16.9 S 1 4 1015.8 - 0.0 - - - - - - -
26/07:30pm 18.0 SW 3 5 1015.3 - 0.0 - - - - - - -
26/07:00pm 18.5 SW 3 6 1014.8 - 0.0 - - - - - - -
26/06:30pm 18.3 CALM 0 3 1014.3 - 0.0 - - - - - - -
26/06:00pm 19.6 SW 3 4 1013.6 - 0.0 - - - - - - -
26/05:30pm 21.1 SW 4 7 1013.1 - 0.0 - - - - - - -
26/05:00pm 22.1 WSW 4 9 1012.6 - 0.0 - - - - - - -
26/04:30pm 23.1 SW 6 10 1012.2 - 0.0 - - - - - - -
26/04:00pm 23.6 WSW 6 12 1011.6 - 0.0 - - - - - - -
26/03:30pm 24.0 SW 6 14 1011.3 - 0.0 - - - - - - -
26/03:00pm 24.5 WSW 6 17 1010.9 - 0.0 - - - - - - -
26/02:30pm 24.7 WSW 7 13 1010.6 - 0.0 - - - - - - -
26/02:00pm 25.3 WSW 7 13 1010.5 - 0.0 - - - - - - -
26/01:30pm 25.0 W 7 12 1010.5 - 0.0 - - - - - - -
26/01:00pm 25.0 W 5 10 1010.4 - 0.0 - - - - - - -
26/12:30pm 24.0 W 8 13 1010.7 - 0.0 - - - - - - -
26/12:00pm 23.7 W 7 15 1011.0 - 0.0 - - - - - - -
26/11:30am 23.5 W 6 12 1011.4 - 0.0 - - - - - - -
26/11:00am 22.8 W 7 14 1012.0 - 0.0 - - - - - - -
26/10:30am 22.4 W 6 13 1012.4 - 0.0 - - - - - - -
26/10:00am 21.4 WSW 9 15 1012.5 - 0.0 - - - - - - -
26/09:30am 21.5 WSW 7 14 1012.7 - 0.0 - - - - - - -
26/09:00am 20.7 WSW 7 16 1012.7 - 0.0 - - - - - - -
26/08:30am 20.4 WSW 7 13 1012.8 - 0.0 - - - - - - -
26/08:00am 20.4 W 4 9 1012.7 - 0.0 - - - - - - -
26/07:30am 19.7 NW 1 5 1012.5 - 0.0 - - - - - - -
26/07:00am 19.0 NNW 1 4 1012.1 - 0.0 - - - - - - -
26/06:30am 18.3 SSW 3 7 1011.7 - 0.0 - - - - - - -
26/06:00am 18.1 S 2 5 1011.3 - 0.0 - - - - - - -
26/05:30am 18.1 WNW 2 4 1010.9 - 0.0 - - - - - - -
26/05:00am 19.1 WNW 4 6 1010.5 - 0.0 - - - - - - -
26/04:30am 19.2 W 4 9 1010.2 - 0.0 - - - - - - -
26/04:00am 18.1 NW 2 4 1009.8 - 0.0 - - - - - - -
26/03:30am 18.3 NNW 1 3 1009.7 - 0.0 - - - - - - -
26/03:00am 18.2 NNW 1 4 1009.4 - 0.0 - - - - - - -
26/02:30am 18.8 NNW 4 6 1009.5 - 0.0 - - - - - - -
26/02:00am 18.6 NW 4 5 1009.4 - 0.0 - - - - - - -
26/01:30am 18.9 WNW 1 4 1009.5 - 0.0 - - - - - - -
26/01:00am 19.8 W 4 9 1009.5 - 0.0 - - - - - - -
26/12:30am 18.3 NW 2 4 1009.5 - 0.0 - - - - - - -
26/12:00am 18.8 NW 4 5 1009.5 - 0.0 - - - - - - -
 
Date/Time
EST
Temp

°C
Wind Pressure Rain
since 9am
mm
Weather Cloud Vis
km
Sea
Height
m
Swell
Dir
 
Speed
knots
Gust
knots
hPa Trend Height
m
Period
s
Dir
25/11:30pm 19.3 W 4 6 1009.7 - 0.0 - - - - - - -
25/11:00pm 19.9 NNW 5 6 1009.8 - 0.0 - - - - - - -
25/10:30pm 19.9 NNW 4 6 1010.2 - 0.0 - - - - - - -
25/10:00pm 20.4 NW 4 5 1010.4 - 0.0 - - - - - - -
25/09:30pm 20.6 NNW 3 5 1010.5 - 0.0 - - - - - - -
25/09:00pm 21.2 NW 3 4 1010.6 - 0.0 - - - - - - -
25/08:30pm 21.8 NW 4 5 1010.5 - 0.0 - - - - - - -
25/08:00pm 21.6 NW 5 6 1010.2 - 0.0 - - - - - - -
25/07:30pm 21.6 NW 5 6 1009.9 - 0.0 - - - - - - -
25/07:00pm 22.0 NW 4 5 1009.5 - 0.0 - - - - - - -
25/06:30pm 22.9 NNW 4 5 1009.1 - 0.0 - - - - - - -
25/06:00pm 23.5 NNE 3 5 1008.7 - 0.0 - - - - - - -
25/05:30pm 23.9 NNE 5 6 1008.4 - 0.0 - - - - - - -
25/05:00pm 24.5 NE 5 8 1008.2 - 0.0 - - - - - - -

Other Formats:

Comma delimited format used in spreadsheet applications
http://www.bom.gov.au/fwo/IDQ60701/IDQ60701.94570.axf

JavaScript Object Notation format (JSON) in row-major order
http://www.bom.gov.au/fwo/IDQ60701/IDQ60701.94570.json